Huvudsida
METAR-TAF:

METAR-TAF

Flygplatser :

Saint-Denis, Réunion

latitud: 20-53S, longitud: 055-31E, höjd: 21 m

Aktuellt väderrapport

Denna rapport gjordes för 11 minuter sedan, klockan 21:00 UTC
Vind 5 kt från syd
Temperatur 26°C
Fuktighet 70%
Tryck 1013 hPa
Sikt 10 km eller mer
Inga moln under 1 500 m eller inga cumulonimbus

METAR: FMEE 142100Z AUTO 18005KT CAVOK 26/20 Q1013 TEMPO 4000 SHRA BKN020TCU

Tid: 01:11 (21:11 UTC)

Väderprognos

Denna rapport gjordes för 4 timmar och 11 minuter sedan, klockan 17:00 UTC
Prognos gäller från 14 kl. 18 UTC till 15 kl. 24 UTC
Vind 5 kt från ost/sydost
Sikt 10 km eller mer
Få moln på en höjd av 2500 ft
Sannolikhet 30% :
Temporärt
från 14 kl. 21 UTC till 15 kl. 05 UTC
Sikt: 4000 m
Brutna moln på en höjd av 2000 ft, Högtornande cumulus.
regnskurar
Temporärt
från 15 kl. 05 UTC till 15 kl. 10 UTC
Vind 10 kt från väst/nordväst

TAF: FMEE 141700Z 1418/1524 12005KT 9999 FEW025 PROB30 TEMPO 1421/1505 4000 SHRA BKN020TCU TEMPO 1505/1510 30010KT

Aktuella väderrapporter och prognoser från 4000 flygplatser (METAR- och TAF-rapporter).

De tillgängliga stationerna syns som gula och röda prickar på kartan.

För musen över prickarna för att se namnen på stationerna.

Klicka sedan för att få väderrapporter och prognoser.

För att ändra kartan: Klicka på de gröna knapparna med ett svart kors på för att zooma in; den gröna knappen med ett streck på för att zooma ut; eller på de gröna pilarna för angränsande kartor.


METAR-TAF: